createdAt,value
2019-04-22T00:00:44.839Z,100358.31
2019-04-22T00:03:53.199Z,100356.22
2019-04-22T00:07:18.849Z,100351.17
2019-04-22T00:10:28.955Z,100352.85
2019-04-22T00:13:32.384Z,100349.09
2019-04-22T00:16:41.641Z,100351.82
2019-04-22T00:19:47.045Z,100349.80
2019-04-22T00:22:44.872Z,100345.31
2019-04-22T00:25:57.246Z,100345.73
2019-04-22T00:29:03.891Z,100347.31
2019-04-22T00:31:59.631Z,100343.21
2019-04-22T00:35:07.262Z,100347.42
2019-04-22T00:38:19.116Z,100343.84
2019-04-22T00:41:20.370Z,100340.81
2019-04-22T00:44:25.634Z,100334.61
2019-04-22T00:50:37.204Z,100332.72
2019-04-22T00:53:40.182Z,100327.05
2019-04-22T00:56:50.837Z,100328.20
2019-04-22T00:59:54.368Z,100329.03
2019-04-22T01:03:03.125Z,100330.19
2019-04-22T01:06:04.585Z,100337.02
2019-04-22T01:09:25.409Z,100331.89
2019-04-22T01:12:16.718Z,100331.35
2019-04-22T01:15:27.609Z,100331.44
2019-04-22T01:18:25.065Z,100324.32
2019-04-22T01:21:37.140Z,100325.56
2019-04-22T01:24:32.653Z,100321.87
2019-04-22T01:27:35.773Z,100325.02
2019-04-22T01:30:32.943Z,100320.19
2019-04-22T01:33:35.328Z,100320.72
2019-04-22T01:36:55.481Z,100315.78
2019-04-22T01:40:06.520Z,100309.66
2019-04-22T01:43:16.846Z,100312.50
2019-04-22T01:46:16.306Z,100298.41
2019-04-22T01:49:25.806Z,100297.45
2019-04-22T01:52:23.716Z,100296.89
2019-04-22T01:55:40.321Z,100297.29
2019-04-22T01:58:36.718Z,100293.39
2019-04-22T02:01:48.426Z,100293.02
2019-04-22T02:04:53.208Z,100288.92
2019-04-22T02:07:59.523Z,100294.05
2019-04-22T02:11:03.970Z,100288.24
2019-04-22T02:14:11.341Z,100289.70
2019-04-22T02:17:31.557Z,100284.13
2019-04-22T02:20:23.221Z,100284.25
2019-04-22T02:26:35.526Z,100280.17
2019-04-22T02:36:08.953Z,100275.09
2019-04-22T02:42:04.679Z,100273.94
2019-04-22T02:48:25.406Z,100272.64
2019-04-22T02:51:30.113Z,100281.02
2019-04-22T03:00:40.181Z,100258.36
2019-04-22T03:06:42.862Z,100255.77
2019-04-22T03:09:54.845Z,100251.58
2019-04-22T03:13:01.141Z,100242.84
2019-04-22T03:16:21.705Z,100252.58
2019-04-22T03:19:26.448Z,100243.38
2019-04-22T03:22:28.048Z,100240.55
2019-04-22T03:28:32.951Z,100234.77
2019-04-22T03:32:19.767Z,100239.62
2019-04-22T03:41:13.362Z,100233.45
2019-04-22T03:44:23.528Z,100235.55
2019-04-22T03:57:10.818Z,100242.35
2019-04-22T03:59:41.489Z,100235.11
2019-04-22T04:12:14.430Z,100234.41
2019-04-22T04:15:13.614Z,100239.66
2019-04-22T04:21:27.015Z,100234.41
2019-04-22T04:27:49.022Z,100230.62
2019-04-22T04:30:42.764Z,100238.27
2019-04-22T04:33:40.640Z,100229.87
2019-04-22T04:36:57.819Z,100226.74
2019-04-22T04:40:00.374Z,100232.82
2019-04-22T04:42:54.314Z,100232.80
2019-04-22T04:46:06.385Z,100242.42
2019-04-22T04:52:16.927Z,100230.91
2019-04-22T04:55:25.854Z,100237.69
2019-04-22T05:04:41.239Z,100233.06
2019-04-22T05:07:48.500Z,100236.20
2019-04-22T05:10:53.533Z,100230.53
2019-04-22T05:19:56.640Z,100240.21
2019-04-22T05:23:20.760Z,100247.39
2019-04-22T05:26:04.275Z,100241.28
2019-04-22T05:29:09.640Z,100238.65
2019-04-22T05:32:30.778Z,100231.39
2019-04-22T05:35:20.698Z,100231.06
2019-04-22T05:38:30.795Z,100234.23
2019-04-22T05:41:30.620Z,100239.73
2019-04-22T05:44:36.133Z,100231.06
2019-04-22T05:47:42.205Z,100233.75
2019-04-22T05:50:47.231Z,100238.55
2019-04-22T05:53:57.429Z,100239.11
2019-04-22T05:56:53.379Z,100231.42
2019-04-22T06:00:06.349Z,100231.70
2019-04-22T06:03:10.473Z,100247.22
2019-04-22T06:06:14.377Z,100236.33
2019-04-22T06:12:20.897Z,100233.02
2019-04-22T06:15:46.252Z,100231.08
2019-04-22T06:18:44.539Z,100226.46
2019-04-22T06:21:46.422Z,100225.38
2019-04-22T06:24:49.131Z,100224.53
2019-04-22T06:27:54.169Z,100228.16
2019-04-22T06:31:02.622Z,100233.61
2019-04-22T06:34:11.868Z,100231.86
2019-04-22T06:37:13.412Z,100222.80
2019-04-22T06:40:24.630Z,100223.91
2019-04-22T06:43:22.415Z,100219.59
2019-04-22T06:46:31.094Z,100219.41
2019-04-22T06:49:35.795Z,100217.63
2019-04-22T06:52:38.902Z,100214.24
2019-04-22T06:55:45.616Z,100211.58
2019-04-22T06:58:55.608Z,100207.76
2019-04-22T07:05:02.185Z,100211.02
2019-04-22T07:08:30.402Z,100209.55
2019-04-22T07:11:18.501Z,100208.47
2019-04-22T07:14:22.834Z,100207.84
2019-04-22T07:20:48.935Z,100202.97
2019-04-22T07:23:55.558Z,100200.11
2019-04-22T07:27:00.506Z,100189.28
2019-04-22T07:30:03.931Z,100195.67
2019-04-22T07:36:30.675Z,100190.25
2019-04-22T07:39:15.697Z,100191.97
2019-04-22T07:42:28.192Z,100196.11
2019-04-22T07:45:29.656Z,100194.58
2019-04-22T07:48:37.647Z,100185.57
2019-04-22T07:51:36.371Z,100187.58
2019-04-22T07:54:46.789Z,100199.05
2019-04-22T07:58:05.275Z,100186.48
2019-04-22T08:00:55.354Z,100181.70
2019-04-22T08:07:14.683Z,100187.51
2019-04-22T08:10:23.814Z,100175.61
2019-04-22T08:13:24.765Z,100186.91
2019-04-22T08:16:28.526Z,100186.61
2019-04-22T08:19:40.473Z,100180.00
2019-04-22T08:22:43.035Z,100177.53
2019-04-22T08:25:45.045Z,100187.55
2019-04-22T08:28:54.587Z,100177.81
2019-04-22T08:31:57.998Z,100173.44
2019-04-22T08:35:04.494Z,100175.61
2019-04-22T08:38:11.405Z,100163.71
2019-04-22T08:41:28.949Z,100167.58
2019-04-22T08:44:49.695Z,100170.88
2019-04-22T08:50:38.808Z,100174.48
2019-04-22T08:53:49.963Z,100175.88
2019-04-22T08:56:45.725Z,100186.12
2019-04-22T09:00:00.564Z,100166.13
2019-04-22T09:03:00.607Z,100193.64
2019-04-22T09:06:15.291Z,100197.25
2019-04-22T09:15:26.372Z,100177.84
2019-04-22T09:18:29.815Z,100189.45
2019-04-22T09:21:34.389Z,100183.91
2019-04-22T09:24:35.799Z,100177.52
2019-04-22T09:27:47.904Z,100175.02
2019-04-22T09:33:49.639Z,100160.84
2019-04-22T09:37:07.812Z,100167.30
2019-04-22T09:43:13.400Z,100161.91
2019-04-22T09:46:16.655Z,100161.73
2019-04-22T09:49:26.663Z,100160.40
2019-04-22T09:52:30.817Z,100150.13
2019-04-22T09:55:37.081Z,100152.38
2019-04-22T09:58:44.625Z,100144.13
2019-04-22T10:02:02.449Z,100140.42
2019-04-22T10:05:00.078Z,100141.53
2019-04-22T10:07:59.470Z,100153.12
2019-04-22T10:11:04.316Z,100126.46
2019-04-22T10:14:16.954Z,100122.96
2019-04-22T10:17:13.902Z,100136.48
2019-04-22T10:20:25.330Z,100119.84
2019-04-22T10:23:26.509Z,100109.48
2019-04-22T10:26:33.454Z,100117.33
2019-04-22T10:29:47.373Z,100111.01
2019-04-22T10:32:46.293Z,100116.95
2019-04-22T10:35:30.672Z,100116.78
2019-04-22T10:38:34.613Z,100098.20
2019-04-22T10:41:38.929Z,100115.83
2019-04-22T10:44:45.149Z,100113.41
2019-04-22T10:47:54.267Z,100128.06
2019-04-22T10:50:58.904Z,100108.59
2019-04-22T10:54:02.776Z,100099.25
2019-04-22T10:57:06.722Z,100084.97
2019-04-22T11:00:13.435Z,100078.36
2019-04-22T11:03:18.224Z,100077.16
2019-04-22T11:06:23.164Z,100080.05
2019-04-22T11:09:27.078Z,100068.80
2019-04-22T11:12:34.097Z,100074.51
2019-04-22T11:15:37.091Z,100077.24
2019-04-22T11:18:41.266Z,100065.01
2019-04-22T11:21:57.912Z,100062.77
2019-04-22T11:24:50.858Z,100055.78
2019-04-22T11:27:57.700Z,100061.70
2019-04-22T11:31:02.649Z,100030.13
2019-04-22T11:34:08.896Z,100055.41
2019-04-22T11:37:12.674Z,100037.11
2019-04-22T11:40:25.372Z,100042.67
2019-04-22T11:43:24.203Z,100030.31
2019-04-22T11:46:29.371Z,100036.81
2019-04-22T11:49:36.117Z,100035.06
2019-04-22T11:52:40.601Z,100033.25
2019-04-22T11:55:44.755Z,100028.27
2019-04-22T11:58:48.846Z,100026.57
2019-04-22T12:01:53.001Z,100015.39
2019-04-22T12:04:58.080Z,100025.91
2019-04-22T12:08:02.979Z,100015.73
2019-04-22T12:11:07.995Z,100005.19
2019-04-22T12:14:13.945Z,100015.25
2019-04-22T12:17:18.091Z,100007.09
2019-04-22T12:20:23.408Z,100002.16
2019-04-22T12:23:27.387Z,99993.41
2019-04-22T12:26:32.545Z,100001.59
2019-04-22T12:29:36.432Z,99982.47
2019-04-22T12:32:41.171Z,100017.26
2019-04-22T12:35:46.307Z,99982.91
2019-04-22T12:38:51.377Z,99978.53
2019-04-22T12:41:56.173Z,99980.04
2019-04-22T12:45:00.450Z,99984.48
2019-04-22T12:48:04.466Z,99968.00
2019-04-22T12:51:09.220Z,99971.52
2019-04-22T12:54:13.179Z,99972.52
2019-04-22T12:57:17.001Z,99947.59
2019-04-22T13:00:22.473Z,99950.14
2019-04-22T13:03:26.453Z,99958.28
2019-04-22T13:06:30.206Z,99937.94
2019-04-22T13:09:33.848Z,99943.50
2019-04-22T13:12:39.395Z,99936.11
2019-04-22T13:15:44.511Z,99973.87
2019-04-22T13:18:55.447Z,99956.77
2019-04-22T13:21:54.608Z,99946.17
2019-04-22T13:24:59.607Z,99936.89
2019-04-22T13:28:04.900Z,99909.59
2019-04-22T13:31:09.807Z,99908.53
2019-04-22T13:34:24.364Z,99907.86
2019-04-22T13:37:23.218Z,99909.05
2019-04-22T13:40:30.794Z,99895.91
2019-04-22T13:43:34.862Z,99916.94
2019-04-22T13:46:41.097Z,99907.34
2019-04-22T13:50:17.664Z,99913.60
2019-04-22T13:53:33.721Z,99900.66
2019-04-22T13:56:15.473Z,99894.92
2019-04-22T13:59:11.317Z,99898.27
2019-04-22T14:02:22.446Z,99912.45
2019-04-22T14:05:26.965Z,99890.94
2019-04-22T14:08:31.332Z,99887.97
2019-04-22T14:11:44.136Z,99896.28
2019-04-22T14:14:42.775Z,99894.07
2019-04-22T14:17:47.118Z,99902.38
2019-04-22T14:20:51.190Z,99893.13
2019-04-22T14:23:56.314Z,99888.95
2019-04-22T14:27:17.913Z,99901.19
2019-04-22T14:30:08.458Z,99888.92
2019-04-22T14:33:12.259Z,99886.34
2019-04-22T14:36:17.143Z,99886.53
2019-04-22T14:39:21.970Z,99882.26
2019-04-22T14:42:45.654Z,99873.09
2019-04-22T14:46:05.520Z,99860.72
2019-04-22T14:49:01.380Z,99872.05
2019-04-22T14:52:10.788Z,99866.79
2019-04-22T14:54:59.856Z,99865.70
2019-04-22T14:57:52.937Z,99857.05
2019-04-22T15:00:56.934Z,99848.05
2019-04-22T15:04:00.902Z,99876.66
2019-04-22T15:07:05.297Z,99859.73
2019-04-22T15:10:10.342Z,99851.63
2019-04-22T15:13:17.747Z,99858.04
2019-04-22T15:16:27.738Z,99850.63
2019-04-22T15:19:33.846Z,99877.01
2019-04-22T15:22:38.888Z,99851.34
2019-04-22T15:25:44.259Z,99848.80
2019-04-22T15:28:49.280Z,99847.48
2019-04-22T15:31:53.507Z,99845.59
2019-04-22T15:34:57.394Z,99838.39
2019-04-22T15:38:04.571Z,99858.28
2019-04-22T15:41:08.182Z,99852.07
2019-04-22T15:44:12.062Z,99856.20
2019-04-22T15:47:15.736Z,99842.95
2019-04-22T15:50:19.531Z,99842.37
2019-04-22T15:53:25.404Z,99849.77
2019-04-22T15:56:28.665Z,99846.40
2019-04-22T15:59:50.501Z,99828.07
2019-04-22T16:02:39.366Z,99832.06
2019-04-22T16:05:44.095Z,99833.97
2019-04-22T16:08:48.023Z,99834.03
2019-04-22T16:11:54.044Z,99835.34
2019-04-22T16:14:59.686Z,99825.18
2019-04-22T16:18:06.436Z,99850.37
2019-04-22T16:21:13.100Z,99843.34
2019-04-22T16:24:19.909Z,99840.30
2019-04-22T16:27:27.177Z,99845.45
2019-04-22T16:30:31.052Z,99845.95
2019-04-22T16:33:39.309Z,99837.44
2019-04-22T16:36:40.757Z,99857.72
2019-04-22T16:39:46.490Z,99846.15
2019-04-22T16:42:58.148Z,99831.70
2019-04-22T16:45:55.863Z,99845.60
2019-04-22T16:48:59.675Z,99821.77
2019-04-22T16:52:03.887Z,99831.81
2019-04-22T16:55:08.721Z,99820.64
2019-04-22T16:58:12.750Z,99833.58
2019-04-22T17:01:34.678Z,99823.97
2019-04-22T17:04:40.883Z,99826.20
2019-04-22T17:07:45.729Z,99823.97
2019-04-22T17:10:51.669Z,99837.50
2019-04-22T17:14:13.278Z,99831.86
2019-04-22T17:17:19.937Z,99834.09
2019-04-22T17:20:27.194Z,99842.57
2019-04-22T17:23:31.732Z,99829.61
2019-04-22T17:26:36.644Z,99844.02
2019-04-22T17:29:41.062Z,99840.92
2019-04-22T17:32:47.752Z,99839.18
2019-04-22T17:35:50.436Z,99836.53
2019-04-22T17:39:07.025Z,99833.92
2019-04-22T17:42:22.185Z,99838.28
2019-04-22T17:45:38.975Z,99858.55
2019-04-22T17:48:57.610Z,99851.16
2019-04-22T17:55:32.230Z,99856.45
2019-04-22T17:58:34.748Z,99851.50
2019-04-22T18:01:41.719Z,99852.98
2019-04-22T18:04:29.037Z,99851.56
2019-04-22T18:07:49.334Z,99856.42
2019-04-22T18:10:58.496Z,99870.92
2019-04-22T18:14:16.785Z,99863.24
2019-04-22T18:17:10.970Z,99869.52
2019-04-22T18:20:14.470Z,99854.33
2019-04-22T18:23:10.235Z,99863.70
2019-04-22T18:26:27.050Z,99858.17
2019-04-22T18:29:34.462Z,99857.73
2019-04-22T18:32:37.984Z,99860.15
2019-04-22T18:35:42.027Z,99856.59
2019-04-22T18:39:02.805Z,99873.80
2019-04-22T18:41:51.817Z,99855.92
2019-04-22T18:45:19.894Z,99856.23
2019-04-22T18:48:11.268Z,99863.11
2019-04-22T18:51:29.540Z,99864.63
2019-04-22T18:54:31.127Z,99868.89
2019-04-22T18:57:46.506Z,99858.41
2019-04-22T19:00:43.969Z,99869.94
2019-04-22T19:04:00.283Z,99863.42
2019-04-22T19:07:28.669Z,99863.41
2019-04-22T19:10:36.249Z,99864.50
2019-04-22T19:19:49.830Z,99868.94
2019-04-22T19:22:57.409Z,99857.03
2019-04-22T19:25:55.679Z,99875.16
2019-04-22T19:29:03.899Z,99864.77
2019-04-22T19:32:07.044Z,99871.28
2019-04-22T19:35:11.849Z,99874.50
2019-04-22T19:38:09.565Z,99861.76
2019-04-22T19:41:24.325Z,99865.23
2019-04-22T19:44:25.994Z,99871.07
2019-04-22T19:47:40.115Z,99863.32
2019-04-22T19:50:50.401Z,99855.95
2019-04-22T19:53:47.142Z,99856.02
2019-04-22T19:56:40.366Z,99850.93
2019-04-22T19:59:51.172Z,99848.20
2019-04-22T20:03:18.605Z,99846.83
2019-04-22T20:06:33.694Z,99838.38
2019-04-22T20:09:49.306Z,99839.27
2019-04-22T20:12:51.132Z,99842.32
2019-04-22T20:15:48.975Z,99841.78
2019-04-22T20:19:06.902Z,99832.88
2019-04-22T20:22:02.912Z,99832.66
2019-04-22T20:25:00.019Z,99832.72
2019-04-22T20:28:19.946Z,99826.50
2019-04-22T20:31:20.547Z,99828.34
2019-04-22T20:34:24.071Z,99825.07
2019-04-22T20:37:35.177Z,99824.53
2019-04-22T20:40:40.081Z,99808.97
2019-04-22T20:43:50.040Z,99816.11
2019-04-22T20:46:44.742Z,99808.59
2019-04-22T20:50:02.006Z,99801.63
2019-04-22T20:53:08.559Z,99791.22
2019-04-22T20:56:12.827Z,99794.87
2019-04-22T20:59:12.579Z,99789.09
2019-04-22T21:02:16.420Z,99788.70
2019-04-22T21:05:24.823Z,99785.66
2019-04-22T21:08:35.078Z,99784.61
2019-04-22T21:11:53.609Z,99779.81
2019-04-22T21:15:06.798Z,99780.36
2019-04-22T21:18:15.080Z,99770.61
2019-04-22T21:24:59.312Z,99774.27
2019-04-22T21:28:05.050Z,99743.97
2019-04-22T21:31:05.857Z,99773.75
2019-04-22T21:34:10.329Z,99763.17
2019-04-22T21:37:20.285Z,99769.02
2019-04-22T21:40:25.809Z,99765.30
2019-04-22T21:43:28.888Z,99756.95
2019-04-22T21:46:33.478Z,99753.69
2019-04-22T21:49:42.832Z,99753.23
2019-04-22T21:52:54.531Z,99761.88
2019-04-22T21:56:02.181Z,99755.48
2019-04-22T21:59:05.158Z,99759.08
2019-04-22T22:02:13.844Z,99759.80
2019-04-22T22:05:11.206Z,99756.74
2019-04-22T22:08:27.565Z,99744.69
2019-04-22T22:11:28.850Z,99750.09
2019-04-22T22:14:34.849Z,99746.55
2019-04-22T22:17:36.601Z,99743.59
2019-04-22T22:21:02.224Z,99740.04
2019-04-22T22:23:55.934Z,99731.38
2019-04-22T22:26:57.102Z,99727.17
2019-04-22T22:33:05.683Z,99718.22
2019-04-22T22:36:08.732Z,99718.00
2019-04-22T22:39:13.259Z,99715.71
2019-04-22T22:42:01.814Z,99715.27
2019-04-22T22:45:19.842Z,99705.84
2019-04-22T22:48:39.734Z,99708.36
2019-04-22T22:51:49.446Z,99712.06
2019-04-22T22:54:46.460Z,99704.41
2019-04-22T22:57:50.243Z,99703.05
2019-04-22T23:00:56.177Z,99697.50
2019-04-22T23:04:09.923Z,99694.45
2019-04-22T23:07:19.279Z,99693.78
2019-04-22T23:10:19.058Z,99693.45
2019-04-22T23:13:25.643Z,99668.50
2019-04-22T23:16:19.373Z,99682.13
2019-04-22T23:19:11.115Z,99676.36
2019-04-22T23:22:23.499Z,99673.14
2019-04-22T23:25:42.886Z,99681.20
2019-04-22T23:28:45.961Z,99670.83
2019-04-22T23:31:48.343Z,99675.21
2019-04-22T23:35:10.418Z,99673.68
2019-04-22T23:38:06.297Z,99658.08
2019-04-22T23:44:42.248Z,99669.64
2019-04-22T23:47:39.041Z,99657.59
2019-04-22T23:50:50.925Z,99656.88
2019-04-22T23:54:10.698Z,99657.70
2019-04-22T23:56:56.969Z,99659.00
